Pt. Reyes RCA field Weather observations

Data are for 10 minute period ending at time listed.
 Day   Time   Solar   Ave.   Ave.  Ave.  Vector    Max.   Stn.   Total 
  of    of     Rad.   Air    Rel.  Wind   Wind     Wind   Baro. Precip.
Year   Day            Temp.  Hum.  Speed  Dir.     Gust   Pres.        
2015   (PST)   W/m2    F      %     mph   deg.      mph    mb.    in.  
-----------------------------------------------------------------------
  31    4:30    0.0    46   96.9     2     29.7     3.5   1009.5  0.00  
  31    4:40    0.0    46   95.6     1    279.5     5.1   1009.5  0.00  
  31    4:50    0.0    43   94.9     5    257.0     6.5   1009.5  0.00  
  31    5:00    0.0    44   96.6     4    258.5     6.3   1009.5  0.00  
  31    5:10    0.0    44   96.3     4    240.6     5.9   1009.5  0.00  
  31    5:20    0.0    46   96.8     2    253.5     3.8   1009.8  0.00  
  31    5:30    0.0    47   96.8     4    265.5     4.5   1009.8  0.00  
  31    5:40    0.0    47   96.7     6    281.7    12.2   1010.2  0.00  
  31    5:50    0.0    49   96.9     5    301.4     9.0   1010.2  0.00  
  31    6:00    0.0    48   96.7     4    340.4     7.1   1010.2  0.00  
  31    6:10    0.0    46   96.6     4    328.3     5.6   1010.5  0.00  
  31    6:20    0.0    46   96.8     6      3.0     8.4   1010.2  0.00  
  31    6:30    0.0    44   97.0     3     45.0     4.9   1010.5  0.00  
  31    6:40    0.0    45   97.3     4     27.6     5.7   1010.5  0.00  
  31    6:50    0.0    45   97.3     4     55.5     5.6   1010.2  0.00  
  31    7:00    0.0    44   96.3     4    144.3     6.3   1010.5  0.00  
  31    7:10    1.0    43   95.9     3    134.9     5.6   1010.2  0.00  
  31    7:20    4.0    44   96.9     2     36.6     3.4   1010.2  0.01  
  31    7:30   13.0    44   95.7     3    331.4     5.4   1010.5  0.00  
  31    7:40   46.0    42   95.3     1    204.0     2.9   1010.5  0.00  
  31    7:50   77.0    45   93.2     3    234.4     6.6   1010.5  0.00  
  31    8:00  108.0    45   92.5     2    270.0     4.3   1010.8  0.00  
  31    8:10  133.0    47   91.8     3    267.9     7.4   1010.8  0.00  
  31    8:20  165.0    49   91.1     2     29.0     3.4   1010.8  0.00  
  31    8:30  189.0    50   90.7     3     99.9     4.2   1010.8  0.00  
  31    8:40  214.0    52   91.4     3    121.1     3.9   1011.2  0.00  
  31    8:50  237.0    54   84.3     5    108.8     7.2   1011.2  0.00  
  31    9:00  262.0    54   82.5     4    119.7     7.5   1011.2  0.00  
  31    9:10  290.0    58   68.7     6     19.0     9.9   1011.5  0.00  
  31    9:20  313.0    59   72.9     4    337.3    11.0   1011.9  0.00  
  31    9:30  334.0    59   61.6     9    302.9    16.6   1011.9  0.00  
  31    9:40  354.0    59   69.3     6    281.5    11.3   1012.2  0.00  
  31    9:50  377.0    60   66.0     5    280.5    11.4   1012.5  0.00  
  31   10:00  400.0    60   71.2     6    283.0    11.0   1012.5  0.00  
  31   10:10  423.0    60   66.8     8    320.3    10.4   1012.2  0.00  
  31   10:20  442.0    61   66.0     8    328.9    11.0   1012.2  0.00  
  31   10:30  463.0    61   63.6     7    359.9     8.9   1012.2  0.00  
  31   10:40  480.0    62   58.3     8    342.9     9.9   1012.2  0.00  
  31   10:50  495.0    62   64.4     8    333.9    10.5   1011.9  0.00  
  31   11:00  510.0    62   63.4     6    325.8     9.7   1011.9  0.00  
  31   11:10  521.0    62   58.8    10    310.0    13.8   1012.2  0.00  
  31   11:20  519.0    62   57.2    10    310.4    12.6   1012.2  0.00  
  31   11:30  542.0    62   54.2     9    309.8    18.1   1012.5  0.00  
  31   11:40  549.0    61   66.0    12    303.3    16.6   1012.5  0.00  
  31   11:50  557.0    61   71.1    10    318.3    14.8   1012.5  0.00  
  31   12:00  563.0    61   74.5     9    324.0    12.6   1012.2  0.00  
  31   12:10  570.0    62   69.6     9    333.0    11.8   1011.9  0.00  
  31   12:20  574.0    61   75.2    11    316.5    14.0   1011.9  0.00  
  31   12:30  572.0    60   75.9    10    327.7    13.7   1011.9  0.00  
  31   12:40  552.0    62   70.6     8    339.2    10.2   1011.5  0.00  
  31   12:50  552.0    64   63.3     4    350.2     6.6   1011.2  0.00  
  31   13:00  550.0    65   52.9     4    319.3     8.6   1011.5  0.00  
  31   13:10  549.0    67   37.7     3    321.6     5.3   1011.2  0.00  
  31   13:20  541.0    68   39.5     6    300.4     9.0   1011.5  0.00  
  31   13:30  532.0    64   51.8     7    311.2     8.5   1011.5  0.00  
  31   13:40  520.0    63   59.8    11    308.8    17.2   1011.5  0.00  
  31   13:50  504.0    61   77.2    11    305.4    16.2   1011.5  0.00  
  31   14:00  489.0    60   79.5    11    308.1    14.6   1011.9  0.00  
  31   14:10  474.0    60   78.4    11    319.0    14.8   1011.5  0.00  
  31   14:20  460.0    60   76.9     7    337.8    10.1   1011.5  0.00  
  31   14:30  444.0    60   73.4     6    350.5     9.5   1011.5  0.00  
  31   14:40  425.0    61   65.2     6    344.1     7.3   1011.2  0.00  
  31   14:50  408.0    62   59.2     4    335.1     6.4   1011.2  0.00  
  31   15:00  386.0    63   59.8     5    312.8     6.1   1011.2  0.00  
  31   15:10  365.0    64   61.6     2    341.1     5.3   1010.8  0.00  
  31   15:20  341.0    64   59.2     3    302.9     6.7   1010.8  0.00  
  31   15:30  317.0    62   68.6     8    280.1    10.5   1010.8  0.00  
  31   15:40  294.0    60   73.5    10    291.9    11.8   1011.2  0.00  
  31   15:50  267.0    59   78.7    10    298.9    13.1   1011.2  0.00  
  31   16:00  240.0    58   82.5     8    307.3    10.7   1011.5  0.00  
  31   16:10  211.0    58   84.5     7    309.0     9.6   1011.2  0.00  
  31   16:20  186.0    58   85.2     6    306.5     7.7   1011.2  0.00  
  31   16:30  159.0    58   85.7     7    301.7    11.5   1011.5  0.00  
  31   16:40  122.0    58   87.0    10    301.9    12.1   1011.9  0.00  
  31   16:50   83.0    57   88.6     8    307.4    11.2   1011.9  0.00  
  31   17:00   71.0    56   89.6     7    315.4    10.2   1011.9  0.00  
  31   17:10   44.0    56   90.4     7    318.7     9.9   1011.9  0.00  
  31   17:20   27.0    55   91.0     7    321.8     8.3   1011.9  0.00  
  31   17:30  999.0   999  999.0   999    999.0   999.0    999.0 999.00  
  31   17:40  999.0   999  999.0   999    999.0   999.0    999.0 999.00  
  31   17:50  999.0   999  999.0   999    999.0   999.0    999.0 999.00  
  31   18:00  999.0   999  999.0   999    999.0   999.0    999.0 999.00  
  31   18:10  999.0   999  999.0   999    999.0   999.0    999.0 999.00  
  31   18:20  999.0   999  999.0   999    999.0   999.0    999.0 999.00  
  31   18:30    0.0    50   93.9     5    312.5     6.9   1012.2  0.00  
  31   18:40    0.0    51   95.3     2    336.5     4.2   1012.5  0.00  
  31   18:50    0.0    52   95.5     1    351.9     2.0   1012.5  0.00  
  31   19:00    0.0    51   95.3     1      1.4     1.6   1012.5  0.00  
  31   19:10    0.0    50   95.4     2    352.3     2.9   1012.5  0.00  
  31   19:20  999.0   999  999.0   999    999.0   999.0    999.0 999.00  
  31   19:30    0.0    50   95.6     2    336.1     4.0   1012.5  0.00  
  31   19:40    0.0    48   95.7     2    343.2     3.1   1012.5  0.00  
  31   19:50    0.0    49   96.5     3    311.7     4.3   1012.5  0.00  
  31   20:00    0.0    50   96.3     5    292.6     5.5   1012.9  0.00  
  31   20:10    0.0    49   96.3     4    292.4     5.8   1012.9  0.00  
  31   20:20    0.0    49   96.4     2    312.6     4.9   1012.9  0.00  
  31   20:30    0.0    48   96.4     2    332.8     3.8   1012.9  0.00  
  31   20:40    0.0    48   96.7     4    316.4     4.6   1012.9  0.00  
  31   20:50    0.0    50   97.0     4    329.2     5.5   1013.2  0.00  
  31   21:00    0.0    51   97.0     2     12.6     3.4   1013.2  0.00  
  31   21:10    0.0    49   96.5     1    343.6     2.6   1013.2  0.00  
  31   21:20    0.0    50   96.8     4    312.0     6.8   1013.2  0.00  
  31   21:30    0.0    50   96.9     7    305.9     8.6   1013.2  0.00  
  31   21:40    0.0    50   97.0     4    338.6     7.5   1013.2  0.00  
  31   21:50    0.0    50   97.0     2    343.4     4.2   1013.2  0.00  
  31   22:00    0.0    50   97.1     3    325.9     4.2   1013.5  0.00  
  31   22:10    0.0    51   97.2     2      4.0     2.8   1013.5  0.00  
  31   22:20    0.0    51   97.1     2     27.4     2.6   1013.5  0.00  
  31   22:30    0.0    50   96.9     3     64.1     3.9   1013.2  0.00  
  31   22:40    0.0    50   97.1     3     77.8     4.2   1013.5  0.00  
  31   22:50    0.0    50   97.3     4     73.4     4.7   1013.2  0.00  
  31   23:00    0.0    50   97.3     2     67.9     3.9   1013.5  0.00  
  31   23:10    0.0    50   97.3     1     62.9     2.0   1013.5  0.00  
  31   23:20    0.0    49   97.3     2     19.5     2.0   1013.5  0.00  
  31   23:30    0.0    49   97.4     1    300.4     2.0   1013.2  0.00  
  31   23:40    0.0    49   97.5     1    223.5     1.9   1013.2  0.00  
  31   23:50    0.0    46   97.7     3    164.1     5.0   1013.5  0.00  
  32    0:00    0.0    45   98.0     6    155.2     8.6   1013.5  0.00  
  32    0:10    0.0    48   97.9     8    142.3     8.6   1013.5  0.00  
  32    0:20    0.0    47   97.9     5    120.8     6.8   1013.9  0.00  
  32    0:30    0.0    47   98.1     6    135.5     7.5   1013.9  0.00  
  32    0:40    0.0    47   98.1     6    131.9     7.8   1013.9  0.00  
  32    0:50    0.0    47   98.2     8    114.7     9.1   1013.9  0.00  
  32    1:00    0.0    47   98.1     5    157.5     5.9   1014.2  0.00  
  32    1:10    0.0    46   98.4     3    207.7     5.7   1014.2  0.00  
  32    1:20    0.0    45   98.5     4    188.8     5.5   1014.6  0.00  
  32    1:30    0.0    46   98.5     3    189.4     5.4   1014.6  0.00  
  32    1:40    0.0    51   98.1     3    330.4     7.8   1014.6  0.00  
  32    1:50    0.0    52   98.0     5    355.5     7.0   1014.6  0.00  
  32    2:00    0.0    51   98.0     4     37.7     6.1   1014.6  0.00  
  32    2:10    0.0    50   98.0     2     62.3     3.9   1014.6  0.00  
  32    2:20    0.0    51   98.1     2     31.8     5.5   1014.6  0.00  
  32    2:30    0.0    51   98.0     1    359.3     2.6   1014.6  0.00  
  32    2:40    0.0    51   98.0     2     44.3     3.4   1014.6  0.00  
  32    2:50    0.0    51   98.0     3     76.0     3.7   1014.6  0.00  
  32    3:00    0.0    51   98.0     3     85.0     4.1   1014.6  0.00  
  32    3:10    0.0    50   98.0     3     88.5     4.3   1014.6  0.00  
  32    3:20    0.0    50   98.0     3     92.2     4.7   1014.6  0.00  
  32    3:30    0.0    49   98.0     4     88.6     6.1   1014.6  0.00  
  32    3:40    0.0    50   98.0     4     94.6     6.2   1014.6  0.00  
  32    3:50    0.0    50   98.0     4    107.5     5.8   1014.6  0.00  
  32    4:00    0.0    49   98.0     5    115.1     6.0   1014.6  0.00  
  32    4:10    0.0    49   98.0     4    149.4     5.7   1014.6  0.00  
  32    4:20    0.0    49   98.0     5    172.8     6.3   1014.6  0.00  

Return to Pt. Reyes graphs page.


Western Regional Climate Center,wrcc@dri.edu